Time;durP1;ratioP1;P1;durP2;ratioP2;P2;SDS_P1;SDS_P2;PMS_P1;PMS_P2;Temp;Humidity;BMP_temperature;BMP_pressure;BME280_temperature;BME280_humidity;BME280_pressure;Samples;Min_cycle;Max_cycle;Signal;HPM_P1;HPM_P2
2022/06/05 00:02:45;;;;;;;15.50;10.23;;;11.50;99.90;;;;;;4991492;28;20189;-49
2022/06/05 00:05:26;;;;;;;15.10;10.13;;;11.40;99.90;;;;;;4992063;28;20199;-49
2022/06/05 00:08:03;;;;;;;27.83;17.93;;;11.40;99.90;;;;;;4993782;28;20439;-50
2022/06/05 00:10:53;;;;;;;19.97;14.30;;;11.40;99.90;;;;;;4997255;28;20533;-49
2022/06/05 00:13:29;;;;;;;25.50;15.00;;;11.40;99.90;;;;;;4997351;28;20446;-49
2022/06/05 00:15:55;;;;;;;18.93;12.57;;;11.30;99.90;;;;;;5001538;28;20446;-50
2022/06/05 00:18:21;;;;;;;24.90;18.10;;;11.20;99.90;;;;;;5007239;28;20773;-49
2022/06/05 00:20:47;;;;;;;16.60;10.53;;;11.10;99.90;;;;;;4994935;28;20494;-49
2022/06/05 00:23:13;;;;;;;16.00;11.70;;;11.10;99.90;;;;;;4997390;28;20196;-49
2022/06/05 00:25:47;;;;;;;13.97;10.70;;;11.10;99.90;;;;;;4993341;28;20246;-49
2022/06/05 00:28:39;;;;;;;14.93;11.03;;;11.10;1.00;;;;;;5000921;28;20279;-49
2022/06/05 00:31:11;;;;;;;15.87;11.00;;;11.10;1.00;;;;;;5002304;28;20475;-49
2022/06/05 00:33:40;;;;;;;14.50;10.83;;;11.20;1.00;;;;;;4990197;28;20455;-49
2022/06/05 00:36:25;;;;;;;17.27;11.80;;;11.20;1.00;;;;;;4988327;28;21152;-50
2022/06/05 00:38:56;;;;;;;16.57;11.80;;;11.20;1.00;;;;;;4994501;28;20455;-49
2022/06/05 00:41:41;;;;;;;13.60;10.50;;;11.10;1.00;;;;;;5003065;28;20466;-49
2022/06/05 00:44:14;;;;;;;16.83;11.53;;;11.00;1.00;;;;;;4994242;28;20956;-49
2022/06/05 00:46:42;;;;;;;17.67;10.87;;;11.00;1.00;;;;;;5003188;28;20443;-49
2022/06/05 00:49:09;;;;;;;18.80;11.30;;;11.00;1.00;;;;;;4994332;28;20446;-49
2022/06/05 00:51:37;;;;;;;18.27;11.70;;;10.90;1.00;;;;;;4998022;28;20418;-49
2022/06/05 00:54:03;;;;;;;17.07;11.90;;;10.80;1.00;;;;;;4998721;28;20447;-49
2022/06/05 00:56:31;;;;;;;20.10;11.90;;;10.70;1.00;;;;;;5002982;28;20420;-49
2022/06/05 00:58:57;;;;;;;19.80;12.90;;;10.70;1.00;;;;;;5000126;28;20612;-49
2022/06/05 01:01:22;;;;;;;18.33;12.47;;;10.60;1.00;;;;;;4997927;28;20470;-49
2022/06/05 01:03:49;;;;;;;19.27;12.87;;;10.60;1.00;;;;;;4993331;28;20490;-49
2022/06/05 01:06:15;;;;;;;18.43;12.10;;;10.50;1.00;;;;;;5003848;28;20199;-50
2022/06/05 01:08:41;;;;;;;15.90;11.23;;;10.50;1.00;;;;;;4999329;28;20411;-49
2022/06/05 01:11:20;;;;;;;19.50;13.20;;;10.40;1.00;;;;;;4993515;28;20223;-50
2022/06/05 01:13:52;;;;;;;16.23;12.10;;;10.40;1.00;;;;;;4993502;28;20188;-49
2022/06/05 01:16:23;;;;;;;17.47;12.20;;;10.30;1.00;;;;;;5003721;28;20406;-49
2022/06/05 01:18:49;;;;;;;19.90;12.40;;;10.30;1.00;;;;;;4992585;28;20796;-49
2022/06/05 01:21:34;;;;;;;20.73;12.20;;;10.30;17.30;;;;;;5003246;28;20486;-49
2022/06/05 01:24:12;;;;;;;18.93;12.87;;;10.20;1.00;;;;;;4993895;28;20196;-50
2022/06/05 01:26:43;;;;;;;20.17;13.20;;;10.20;10.30;;;;;;5003145;28;20416;-49
2022/06/05 01:29:22;;;;;;;19.00;12.10;;;10.10;18.10;;;;;;5000688;28;20422;-49
2022/06/05 01:31:51;;;;;;;21.13;13.47;;;10.10;99.90;;;;;;4997695;28;20939;-49
2022/06/05 01:34:48;;;;;;;19.10;12.43;;;10.10;65.80;;;;;;4996106;28;20446;-49
2022/06/05 01:37:20;;;;;;;18.20;12.50;;;10.00;90.50;;;;;;4995465;28;20445;-50
2022/06/05 01:39:55;;;;;;;17.47;11.50;;;10.00;69.10;;;;;;4991242;28;20446;-49
2022/06/05 01:42:27;;;;;;;17.33;11.90;;;9.90;87.40;;;;;;4987061;28;20924;-49
2022/06/05 01:44:59;;;;;;;18.23;12.03;;;9.90;99.90;;;;;;4994239;28;20508;-50
2022/06/05 01:47:32;;;;;;;20.60;13.10;;;9.80;99.90;;;;;;4997912;28;20414;-49
2022/06/05 01:50:19;;;;;;;18.17;11.23;;;9.80;99.90;;;;;;4997668;28;20524;-49
2022/06/05 01:52:56;;;;;;;19.20;12.73;;;9.80;99.90;;;;;;4996468;28;20929;-49
2022/06/05 01:55:26;;;;;;;18.90;12.97;;;9.80;99.90;;;;;;4994385;28;20807;-49
2022/06/05 01:57:56;;;;;;;19.27;12.90;;;9.70;99.90;;;;;;4994030;28;20496;-49
2022/06/05 02:00:22;;;;;;;19.73;12.03;;;9.70;99.90;;;;;;5000870;28;20487;-49
2022/06/05 02:03:06;;;;;;;19.60;12.20;;;9.70;99.90;;;;;;4999811;28;20938;-49
2022/06/05 02:05:47;;;;;;;20.73;13.60;;;9.70;99.90;;;;;;5000008;28;20485;-49
2022/06/05 02:08:25;;;;;;;20.10;13.40;;;9.70;99.90;;;;;;4990356;28;20450;-50
2022/06/05 02:11:17;;;;;;;25.47;13.80;;;9.70;1.00;;;;;;4998773;28;20482;-49
2022/06/05 02:13:43;;;;;;;19.17;13.43;;;9.70;1.00;;;;;;4987898;28;20451;-49
2022/06/05 02:16:08;;;;;;;22.40;13.60;;;9.70;1.00;;;;;;4992132;28;20453;-49
2022/06/05 02:18:34;;;;;;;20.10;13.30;;;9.60;1.00;;;;;;4995469;28;20204;-50
2022/06/05 02:21:05;;;;;;;21.03;13.40;;;9.60;1.00;;;;;;5001078;28;20263;-49
2022/06/05 02:23:34;;;;;;;20.30;13.77;;;9.60;1.00;;;;;;4983154;28;20291;-50
2022/06/05 02:26:06;;;;;;;23.57;14.33;;;9.60;1.00;;;;;;4999415;28;20500;-50
2022/06/05 02:28:34;;;;;;;22.23;14.47;;;9.60;1.00;;;;;;4991090;28;20502;-49
2022/06/05 02:31:27;;;;;;;22.63;13.80;;;9.60;1.00;;;;;;4996928;28;20487;-50
2022/06/05 02:34:10;;;;;;;20.03;14.47;;;9.60;99.90;;;;;;4998240;28;20447;-50
2022/06/05 02:37:22;;;;;;;24.73;15.00;;;9.60;99.90;;;;;;4993217;28;20442;-49
2022/06/05 02:39:47;;;;;;;23.33;15.30;;;9.60;99.90;;;;;;4962917;28;20982;-50
2022/06/05 02:42:22;;;;;;;26.27;14.80;;;9.60;1.00;;;;;;4995056;28;20446;-50
2022/06/05 02:44:52;;;;;;;25.97;15.60;;;9.60;1.00;;;;;;5000815;28;20577;-50
2022/06/05 02:47:46;;;;;;;26.40;14.47;;;9.60;99.90;;;;;;4992996;28;21117;-50
2022/06/05 02:50:19;;;;;;;27.27;15.87;;;9.70;99.90;;;;;;4997661;28;20995;-50
2022/06/05 02:52:45;;;;;;;25.70;15.93;;;9.70;1.00;;;;;;4998120;28;20451;-50
2022/06/05 02:55:17;;;;;;;23.93;15.27;;;9.70;99.90;;;;;;5000990;28;20447;-50
2022/06/05 02:57:43;;;;;;;28.93;16.50;;;9.60;99.90;;;;;;4992511;28;20641;-49
2022/06/05 03:00:19;;;;;;;25.57;15.90;;;9.70;1.00;;;;;;5003887;28;20508;-50
2022/06/05 03:05:31;;;;;;;22.90;14.60;;;9.80;62.00;;;;;;5001281;28;20505;-50
2022/06/05 03:07:57;;;;;;;26.53;15.70;;;9.80;99.90;;;;;;4996808;28;20788;-50
2022/06/05 03:10:23;;;;;;;25.07;15.70;;;9.80;76.90;;;;;;5000407;28;20449;-49
2022/06/05 03:12:49;;;;;;;31.33;17.10;;;9.80;99.90;;;;;;5002316;28;20211;-49
2022/06/05 03:15:15;;;;;;;29.17;16.87;;;9.90;1.00;;;;;;4995493;28;20208;-49
2022/06/05 03:17:42;;;;;;;29.47;17.03;;;9.90;55.60;;;;;;4994274;28;20680;-49
2022/06/05 03:20:09;;;;;;;28.20;17.37;;;10.00;99.90;;;;;;4993279;28;20535;-49
2022/06/05 03:22:35;;;;;;;30.20;17.20;;;10.00;99.90;;;;;;4998143;28;20442;-50
2022/06/05 03:25:01;;;;;;;30.27;17.50;;;10.10;99.90;;;;;;5000553;28;20437;-50
2022/06/05 03:27:29;;;;;;;31.27;17.93;;;10.10;99.90;;;;;;4997168;28;20457;-50
2022/06/05 03:29:56;;;;;;;29.60;16.30;;;10.10;99.90;;;;;;5003948;28;20424;-50
2022/06/05 03:32:22;;;;;;;27.03;16.17;;;10.20;99.90;;;;;;4992146;28;20523;-50
2022/06/05 03:34:47;;;;;;;28.53;16.43;;;10.20;99.90;;;;;;5000863;28;20451;-50
2022/06/05 03:37:13;;;;;;;25.43;16.20;;;10.30;99.90;;;;;;4995656;28;20478;-58
2022/06/05 03:39:40;;;;;;;29.20;17.80;;;10.40;99.90;;;;;;4997322;28;20196;-49
2022/06/05 03:42:06;;;;;;;25.90;16.03;;;10.40;99.90;;;;;;5001636;28;20231;-50
2022/06/05 03:44:36;;;;;;;27.67;16.07;;;10.50;99.90;;;;;;4997570;28;20460;-49
2022/06/05 03:47:02;;;;;;;24.97;16.33;;;10.50;99.90;;;;;;4995300;28;20451;-50
2022/06/05 03:49:28;;;;;;;25.97;15.97;;;10.60;99.90;;;;;;4998211;28;20436;-49
2022/06/05 03:51:54;;;;;;;25.03;16.37;;;10.60;99.90;;;;;;4991704;28;20439;-50
2022/06/05 03:54:19;;;;;;;27.67;16.80;;;10.70;99.90;;;;;;4998481;28;20463;-50
2022/06/05 03:56:45;;;;;;;29.00;15.13;;;10.70;99.90;;;;;;4996201;28;20283;-49
2022/06/05 03:59:11;;;;;;;32.13;17.20;;;10.90;99.90;;;;;;5002949;28;20192;-50
2022/06/05 04:01:36;;;;;;;25.87;17.10;;;10.90;99.90;;;;;;5000807;28;20243;-50
2022/06/05 04:04:03;;;;;;;29.57;16.90;;;11.00;99.90;;;;;;4995736;28;20204;-50
2022/06/05 04:06:30;;;;;;;25.70;15.63;;;11.10;99.90;;;;;;4998597;28;20249;-49
2022/06/05 04:09:00;;;;;;;28.70;16.07;;;11.20;99.90;;;;;;4995175;28;20447;-50
2022/06/05 04:11:28;;;;;;;25.67;15.37;;;11.20;99.90;;;;;;4995696;28;21170;-50
2022/06/05 04:13:53;;;;;;;27.20;16.10;;;11.30;1.00;;;;;;4995731;28;20451;-50
2022/06/05 04:16:22;;;;;;;22.97;15.70;;;11.50;99.90;;;;;;4999682;28;21317;-50
2022/06/05 04:18:49;;;;;;;24.87;15.00;;;11.60;52.50;;;;;;4991228;28;20196;-50
2022/06/05 04:21:17;;;;;;;27.40;16.27;;;11.70;99.90;;;;;;4996414;28;20642;-49
2022/06/05 04:23:43;;;;;;;22.97;15.93;;;11.80;1.00;;;;;;4996506;28;20443;-49
2022/06/05 04:26:13;;;;;;;21.37;15.30;;;11.90;1.00;;;;;;4991459;28;20458;-50
2022/06/05 04:28:39;;;;;;;24.30;15.93;;;12.00;1.00;;;;;;4993936;28;20232;-50
2022/06/05 04:31:04;;;;;;;27.73;16.60;;;12.10;99.90;;;;;;4992474;28;20458;-50
2022/06/05 04:33:34;;;;;;;21.00;14.93;;;12.20;99.90;;;;;;5003193;28;20462;-49
2022/06/05 04:35:59;;;;;;;23.43;14.27;;;12.40;99.90;;;;;;4993492;28;20203;-49
2022/06/05 04:38:25;;;;;;;22.60;14.60;;;12.50;11.30;;;;;;4997092;28;20451;-50
2022/06/05 04:40:51;;;;;;;21.23;14.30;;;12.70;1.00;;;;;;4992776;28;20305;-49
2022/06/05 04:43:16;;;;;;;25.50;14.10;;;12.90;1.00;;;;;;4995257;28;20219;-49
2022/06/05 04:45:43;;;;;;;20.37;13.10;;;13.00;1.00;;;;;;4994346;28;20192;-50
2022/06/05 04:48:10;;;;;;;21.00;14.47;;;13.20;99.90;;;;;;4999694;28;20577;-49
2022/06/05 04:50:39;;;;;;;22.03;15.30;;;13.40;99.90;;;;;;4993516;28;20465;-49
2022/06/05 04:53:05;;;;;;;19.57;13.93;;;13.50;99.90;;;;;;5000918;28;20427;-49
2022/06/05 04:55:31;;;;;;;22.47;14.07;;;13.70;99.90;;;;;;4994851;28;20455;-49
2022/06/05 04:57:57;;;;;;;20.37;14.30;;;13.80;99.90;;;;;;4997797;28;20485;-50
2022/06/05 05:00:23;;;;;;;18.63;13.23;;;13.90;99.90;;;;;;4998084;28;20219;-50
2022/06/05 05:02:49;;;;;;;19.93;14.50;;;14.10;99.90;;;;;;4991293;28;20188;-49
2022/06/05 05:05:15;;;;;;;18.50;14.20;;;14.20;99.90;;;;;;4999928;28;20461;-49
2022/06/05 05:07:41;;;;;;;22.87;14.43;;;14.20;99.90;;;;;;4995683;28;20506;-49
2022/06/05 05:10:07;;;;;;;20.30;13.10;;;14.40;99.90;;;;;;4993309;28;20455;-49
2022/06/05 05:12:33;;;;;;;19.60;13.53;;;14.50;99.90;;;;;;4996821;28;20246;-50
2022/06/05 05:14:58;;;;;;;18.30;13.90;;;14.70;99.90;;;;;;5001473;28;20439;-50
2022/06/05 05:17:24;;;;;;;19.13;14.00;;;14.90;99.90;;;;;;4995800;28;20222;-49
2022/06/05 05:19:50;;;;;;;17.73;13.27;;;15.00;99.90;;;;;;4994223;28;20253;-49
2022/06/05 05:22:16;;;;;;;15.33;12.00;;;15.20;99.90;;;;;;5000900;28;20187;-50
2022/06/05 05:24:41;;;;;;;17.47;12.67;;;15.30;99.90;;;;;;5001673;28;20266;-50
2022/06/05 05:27:07;;;;;;;15.87;12.30;;;15.50;99.90;;;;;;4997469;28;20211;-49
2022/06/05 05:29:32;;;;;;;18.23;12.50;;;15.70;99.90;;;;;;5003526;28;20192;-50
2022/06/05 05:31:58;;;;;;;18.10;12.40;;;15.80;99.90;;;;;;4993936;28;20195;-49
2022/06/05 05:34:24;;;;;;;23.40;13.30;;;15.90;99.90;;;;;;4998732;28;20197;-49
2022/06/05 05:36:49;;;;;;;18.17;12.17;;;16.10;99.90;;;;;;4998506;28;20223;-49
2022/06/05 05:42:05;;;;;;;21.00;11.90;;;16.50;99.90;;;;;;4983852;28;20231;-49
2022/06/05 05:44:35;;;;;;;14.20;11.13;;;16.70;99.90;;;;;;4995261;28;20424;-50
2022/06/05 05:47:01;;;;;;;12.20;10.47;;;16.90;99.90;;;;;;4995381;28;20443;-50
2022/06/05 05:49:27;;;;;;;15.30;10.73;;;17.10;99.90;;;;;;5002940;28;21009;-50
2022/06/05 05:51:53;;;;;;;12.37;10.00;;;17.20;99.90;;;;;;4997481;28;20561;-50
2022/06/05 05:54:19;;;;;;;12.70;10.53;;;17.30;99.90;;;;;;4996460;28;21421;-50
2022/06/05 05:56:45;;;;;;;13.60;9.70;;;17.60;99.90;;;;;;4995183;28;20214;-50
2022/06/05 05:59:10;;;;;;;14.03;10.50;;;17.80;99.90;;;;;;4994090;28;20958;-49
2022/06/05 06:01:36;;;;;;;9.57;8.57;;;17.90;99.90;;;;;;4998080;28;20216;-50
2022/06/05 06:04:02;;;;;;;10.80;8.90;;;18.10;99.90;;;;;;5003940;28;20183;-50
2022/06/05 06:06:31;;;;;;;12.23;9.10;;;18.30;99.90;;;;;;4998666;28;20223;-50
2022/06/05 06:08:58;;;;;;;12.27;9.67;;;18.60;99.90;;;;;;5006482;28;20442;-50
2022/06/05 06:11:24;;;;;;;12.77;9.80;;;18.80;99.90;;;;;;5006064;28;20450;-50
2022/06/05 06:13:49;;;;;;;15.23;8.80;;;19.00;99.90;;;;;;5003252;28;20410;-50
2022/06/05 06:16:15;;;;;;;10.30;8.20;;;19.10;99.90;;;;;;4996824;28;20446;-50
2022/06/05 06:18:41;;;;;;;12.47;8.57;;;19.20;99.90;;;;;;4993558;28;20208;-50
2022/06/05 06:21:07;;;;;;;12.77;8.67;;;19.30;99.90;;;;;;5003745;28;20246;-50
2022/06/05 06:23:32;;;;;;;10.17;7.63;;;19.50;99.90;;;;;;5005680;28;20668;-51
2022/06/05 06:25:58;;;;;;;10.47;8.10;;;19.70;99.90;;;;;;5003295;28;20254;-50
2022/06/05 06:28:24;;;;;;;12.50;8.77;;;20.00;99.90;;;;;;4997754;28;20185;-50
2022/06/05 06:30:49;;;;;;;7.97;7.17;;;20.20;99.90;;;;;;5003723;28;20203;-50
2022/06/05 06:33:15;;;;;;;11.03;8.47;;;20.40;99.90;;;;;;5001187;28;20938;-50
2022/06/05 06:35:41;;;;;;;8.70;6.70;;;20.60;99.90;;;;;;4994828;28;20320;-50
2022/06/05 06:38:07;;;;;;;11.37;7.53;;;20.80;99.90;;;;;;4998227;28;20598;-50
2022/06/05 06:40:35;;;;;;;10.13;7.47;;;20.90;99.90;;;;;;4998542;28;21130;-50
2022/06/05 06:43:01;;;;;;;9.00;7.60;;;21.00;99.90;;;;;;5005393;28;20487;-50
2022/06/05 06:45:27;;;;;;;10.20;7.70;;;21.00;99.90;;;;;;4997671;28;20501;-50
2022/06/05 06:47:53;;;;;;;9.23;7.27;;;21.00;99.90;;;;;;5001941;28;20447;-50
2022/06/05 06:50:18;;;;;;;7.13;6.40;;;21.00;99.90;;;;;;4996559;28;20455;-50
2022/06/05 06:52:44;;;;;;;10.10;7.10;;;21.10;99.90;;;;;;5001176;28;20199;-50
2022/06/05 06:55:16;;;;;;;10.40;6.67;;;21.30;99.90;;;;;;5005235;28;20203;-50
2022/06/05 06:57:43;;;;;;;9.50;6.97;;;21.40;99.90;;;;;;5001460;28;20188;-50
2022/06/05 07:00:14;;;;;;;7.50;6.10;;;21.40;99.90;;;;;;4996328;28;20467;-50
2022/06/05 07:02:40;;;;;;;6.77;6.13;;;21.40;99.90;;;;;;5004312;28;20443;-50
2022/06/05 07:05:05;;;;;;;6.93;6.23;;;21.70;99.90;;;;;;5002379;28;20448;-51
2022/06/05 07:07:31;;;;;;;7.80;6.10;;;22.10;99.90;;;;;;4995268;28;20315;-50
2022/06/05 07:09:57;;;;;;;7.27;5.73;;;22.30;99.90;;;;;;4997186;28;20924;-50
2022/06/05 07:12:22;;;;;;;6.17;5.53;;;22.60;99.90;;;;;;4998793;28;20196;-50
2022/06/05 07:14:48;;;;;;;8.37;6.13;;;22.60;99.90;;;;;;5002181;28;20206;-50
2022/06/05 07:17:13;;;;;;;9.77;5.57;;;22.60;99.90;;;;;;4995270;28;20544;-50
2022/06/05 07:19:39;;;;;;;8.23;6.17;;;22.60;99.90;;;;;;4997810;28;20254;-50
2022/06/05 07:22:05;;;;;;;7.00;5.27;;;22.80;99.90;;;;;;4999987;28;20331;-50
2022/06/05 07:24:30;;;;;;;6.37;5.77;;;22.90;99.90;;;;;;4995575;28;20201;-50
2022/06/05 07:26:56;;;;;;;7.20;5.20;;;23.00;99.90;;;;;;4996580;28;20203;-50
2022/06/05 07:29:21;;;;;;;5.53;4.97;;;22.90;99.90;;;;;;5004311;28;20187;-50
2022/06/05 07:31:47;;;;;;;6.53;5.80;;;23.10;99.90;;;;;;4998983;28;20199;-50
2022/06/05 07:34:13;;;;;;;6.03;5.20;;;23.30;99.90;;;;;;4998257;28;20214;-50
2022/06/05 07:36:38;;;;;;;6.70;4.93;;;23.60;99.90;;;;;;5002902;28;20298;-50
2022/06/05 07:39:04;;;;;;;5.40;4.90;;;23.80;99.90;;;;;;5002057;28;20230;-50
2022/06/05 07:41:36;;;;;;;6.93;5.27;;;24.10;99.90;;;;;;4998489;28;20564;-51
2022/06/05 07:44:02;;;;;;;5.40;4.90;;;24.20;99.90;;;;;;5001315;28;20241;-50
2022/06/05 07:46:29;;;;;;;5.00;4.60;;;24.50;99.90;;;;;;4998381;28;20879;-54
2022/06/05 07:48:55;;;;;;;6.90;5.40;;;24.70;99.90;;;;;;4998918;28;20454;-51
2022/06/05 07:54:33;;;;;;;5.13;4.63;;;25.10;99.90;;;;;;4993539;28;20206;-50
2022/06/05 07:57:12;;;;;;;5.13;4.37;;;25.20;99.90;;;;;;4993959;28;20462;-50
2022/06/05 07:59:41;;;;;;;4.50;4.10;;;25.20;99.90;;;;;;4996768;28;20451;-50
2022/06/05 08:02:23;;;;;;;4.80;4.40;;;25.20;99.90;;;;;;4999329;28;20485;-50
2022/06/05 08:04:50;;;;;;;6.10;4.40;;;25.60;99.90;;;;;;5001319;28;20998;-50
2022/06/05 08:07:20;;;;;;;5.20;4.07;;;25.80;99.90;;;;;;5001922;28;20526;-51
2022/06/05 08:09:47;;;;;;;9.53;4.60;;;25.90;99.90;;;;;;4999311;28;20439;-50
2022/06/05 08:12:14;;;;;;;4.70;4.30;;;26.10;99.90;;;;;;4992595;28;20454;-51
2022/06/05 08:14:42;;;;;;;4.67;4.27;;;26.20;99.90;;;;;;4996735;28;20979;-50
2022/06/05 08:17:10;;;;;;;6.13;4.70;;;26.40;99.90;;;;;;4994543;28;20451;-51
2022/06/05 08:19:37;;;;;;;4.73;4.30;;;26.70;99.90;;;;;;5002030;28;20506;-50
2022/06/05 08:22:03;;;;;;;4.73;4.33;;;26.60;99.90;;;;;;4994781;28;20572;-50
2022/06/05 08:24:29;;;;;;;4.67;4.27;;;26.90;99.90;;;;;;4994259;28;20459;-50
2022/06/05 08:26:55;;;;;;;6.10;4.47;;;27.10;99.90;;;;;;4989461;28;20439;-50
2022/06/05 08:29:20;;;;;;;4.27;3.87;;;27.30;99.90;;;;;;4994966;28;20283;-50
2022/06/05 08:31:46;;;;;;;5.00;4.03;;;27.30;99.90;;;;;;5002359;28;20674;-50
2022/06/05 08:34:12;;;;;;;5.03;4.07;;;27.50;99.90;;;;;;5002899;28;20267;-50
2022/06/05 08:36:38;;;;;;;4.10;3.70;;;27.60;99.90;;;;;;5000171;28;20826;-51
2022/06/05 08:41:59;;;;;;;7.47;5.33;;;27.80;99.90;;;;;;5002211;28;20477;-50
2022/06/05 08:44:49;;;;;;;4.20;3.90;;;27.90;99.90;;;;;;5000066;28;20807;-50
2022/06/05 08:47:23;;;;;;;4.40;3.93;;;27.80;99.90;;;;;;4991249;28;20450;-50
2022/06/05 08:50:03;;;;;;;7.07;4.70;;;27.80;99.90;;;;;;4986483;28;20447;-50
2022/06/05 08:52:42;;;;;;;4.53;4.13;;;27.70;99.90;;;;;;4992533;28;20447;-50
2022/06/05 08:55:28;;;;;;;7.27;4.43;;;27.30;99.90;;;;;;5005477;28;20938;-50
2022/06/05 08:58:11;;;;;;;3.97;3.70;;;27.40;99.90;;;;;;4996504;28;20787;-50
2022/06/05 09:00:42;;;;;;;3.90;3.60;;;27.70;99.90;;;;;;4992026;28;20630;-51
2022/06/05 09:03:43;;;;;;;4.97;4.00;;;28.10;99.90;;;;;;4993595;28;20458;-50
2022/06/05 09:06:14;;;;;;;4.10;3.70;;;28.20;99.90;;;;;;4993188;28;21308;-50
2022/06/05 09:08:43;;;;;;;4.10;3.70;;;28.10;99.90;;;;;;4998610;28;20422;-50
2022/06/05 09:11:37;;;;;;;8.17;4.00;;;27.90;99.90;;;;;;4992072;28;20493;-50
2022/06/05 09:14:34;;;;;;;5.00;4.03;;;28.10;99.90;;;;;;4965452;28;20466;-50
2022/06/05 09:17:09;;;;;;;5.47;3.80;;;28.30;99.90;;;;;;4989927;28;20450;-50
2022/06/05 09:19:34;;;;;;;6.33;3.70;;;28.50;99.90;;;;;;5000637;28;20450;-51
2022/06/05 09:22:15;;;;;;;3.70;3.40;;;28.60;99.90;;;;;;4999645;28;20516;-50
2022/06/05 09:25:07;;;;;;;7.83;3.70;;;28.80;99.90;;;;;;4993999;28;20279;-50
2022/06/05 09:27:52;;;;;;;4.20;3.80;;;28.90;99.90;;;;;;4979796;28;20455;-50
2022/06/05 09:30:26;;;;;;;4.33;3.17;;;28.80;99.90;;;;;;4992668;28;20451;-50
2022/06/05 09:33:15;;;;;;;4.13;3.63;;;28.70;99.90;;;;;;4997977;28;20431;-50
2022/06/05 09:35:49;;;;;;;4.00;3.60;;;28.80;99.90;;;;;;5003011;28;20434;-51
2022/06/05 09:38:22;;;;;;;3.67;3.33;;;29.10;99.90;;;;;;5008489;28;20924;-50
2022/06/05 09:41:06;;;;;;;3.77;3.50;;;28.90;99.90;;;;;;5003879;28;20521;-50
2022/06/05 09:43:50;;;;;;;3.80;3.50;;;28.60;99.90;;;;;;5010589;28;20415;-49
2022/06/05 09:46:22;;;;;;;4.60;4.13;;;28.50;99.90;;;;;;5011476;28;20836;-51
2022/06/05 09:49:16;;;;;;;3.70;3.50;;;28.40;99.90;;;;;;5007142;28;20827;-49
2022/06/05 09:51:43;;;;;;;5.67;4.53;;;28.10;99.90;;;;;;5005371;28;20904;-49
2022/06/05 09:54:17;;;;;;;5.60;4.50;;;27.90;99.90;;;;;;5007128;28;21430;-49
2022/06/05 10:00:00;;;;;;;3.70;3.40;;;27.60;99.90;;;;;;5006878;28;20826;-50
2022/06/05 10:02:27;;;;;;;4.20;3.80;;;27.90;99.90;;;;;;5008620;28;20461;-49
2022/06/05 10:04:53;;;;;;;3.80;3.50;;;28.10;99.90;;;;;;5006272;28;20438;-50
2022/06/05 10:07:26;;;;;;;4.10;3.70;;;28.10;99.90;;;;;;5010537;28;20434;-50
2022/06/05 10:09:53;;;;;;;7.27;4.60;;;28.20;99.90;;;;;;5006535;28;20928;-50
2022/06/05 10:12:27;;;;;;;4.60;4.00;;;28.20;99.90;;;;;;5004878;28;20441;-50
2022/06/05 10:15:06;;;;;;;5.63;5.07;;;27.80;99.90;;;;;;5009629;28;20767;-50
2022/06/05 10:17:47;;;;;;;6.43;5.70;;;27.80;99.90;;;;;;5005825;28;20489;-50
2022/06/05 10:20:13;;;;;;;5.83;4.53;;;27.70;99.90;;;;;;4996850;28;20466;-50
2022/06/05 10:22:39;;;;;;;6.60;4.83;;;27.70;99.90;;;;;;4999591;28;20457;-50
2022/06/05 10:25:34;;;;;;;4.87;4.47;;;27.80;99.90;;;;;;5002396;28;20246;-50
2022/06/05 10:28:14;;;;;;;4.70;4.30;;;28.00;99.90;;;;;;5008827;28;20188;-50
2022/06/05 10:30:52;;;;;;;4.63;4.23;;;28.00;99.90;;;;;;4999367;28;20446;-50
2022/06/05 10:33:30;;;;;;;5.63;4.97;;;28.10;99.90;;;;;;5005209;28;20426;-50
2022/06/05 10:36:09;;;;;;;4.80;4.40;;;27.80;99.90;;;;;;5003868;28;20450;-51
2022/06/05 10:38:48;;;;;;;4.30;3.90;;;27.90;99.90;;;;;;4996792;28;20421;-50
2022/06/05 10:41:23;;;;;;;4.50;4.17;;;28.60;99.90;;;;;;5002197;28;20474;-51
2022/06/05 10:44:21;;;;;;;4.57;4.20;;;29.30;99.90;;;;;;5006187;28;20427;-52
2022/06/05 10:47:05;;;;;;;5.03;4.63;;;29.80;99.90;;;;;;5005251;28;20423;-52
2022/06/05 10:49:37;;;;;;;4.13;3.83;;;30.00;99.90;;;;;;4996550;28;20980;-52
2022/06/05 10:52:35;;;;;;;5.00;4.60;;;30.30;99.90;;;;;;5001939;28;20434;-52
2022/06/05 10:55:19;;;;;;;4.23;3.80;;;30.60;99.90;;;;;;5002369;28;20466;-51
2022/06/05 10:58:13;;;;;;;7.27;4.27;;;30.60;99.90;;;;;;5004751;28;20816;-52
2022/06/05 11:01:14;;;;;;;4.20;3.90;;;30.40;99.90;;;;;;4999234;28;20478;-53
2022/06/05 11:03:56;;;;;;;4.60;4.20;;;30.20;99.90;;;;;;4972115;28;20438;-52
2022/06/05 11:06:52;;;;;;;4.57;4.10;;;30.50;99.90;;;;;;4998306;28;20492;-52
2022/06/05 11:09:42;;;;;;;4.33;3.93;;;30.50;99.90;;;;;;5000191;28;20607;-51
2022/06/05 11:15:53;;;;;;;5.43;4.03;;;29.70;99.90;;;;;;4996409;28;20410;-53
2022/06/05 11:18:22;;;;;;;4.10;3.80;;;29.70;99.90;;;;;;5001798;28;20438;-51
2022/06/05 11:20:57;;;;;;;4.83;3.80;;;29.90;99.90;;;;;;5002488;28;20922;-52
2022/06/05 11:23:35;;;;;;;3.90;3.57;;;30.30;99.90;;;;;;4999746;28;20517;-53
2022/06/05 11:26:26;;;;;;;4.67;3.70;;;30.80;99.90;;;;;;4997729;28;20423;-53
2022/06/05 11:29:10;;;;;;;4.70;3.80;;;31.10;99.90;;;;;;4991572;28;21101;-52
2022/06/05 11:31:59;;;;;;;4.20;3.90;;;31.20;99.90;;;;;;5002568;28;20423;-52
2022/06/05 11:34:32;;;;;;;4.00;3.70;;;31.00;99.90;;;;;;4997522;28;20481;-51
2022/06/05 11:37:30;;;;;;;4.13;3.73;;;31.10;99.90;;;;;;4989469;28;20764;-50
2022/06/05 11:40:05;;;;;;;4.03;3.67;;;31.50;99.90;;;;;;5003746;28;20833;-52
2022/06/05 11:42:43;;;;;;;6.03;3.73;;;31.70;99.90;;;;;;5000479;28;20920;-52
2022/06/05 11:45:30;;;;;;;3.90;3.60;;;31.70;99.90;;;;;;5002614;28;20438;-53
2022/06/05 11:48:25;;;;;;;4.07;3.50;;;31.90;99.90;;;;;;5005408;28;20438;-52
2022/06/05 11:51:22;;;;;;;4.00;3.40;;;31.40;99.90;;;;;;4994451;28;20819;-52
2022/06/05 11:54:06;;;;;;;3.93;3.67;;;31.30;99.90;;;;;;4994745;28;20426;-52
2022/06/05 11:56:46;;;;;;;4.10;3.70;;;31.30;99.90;;;;;;4999221;28;20430;-52
2022/06/05 11:59:23;;;;;;;3.83;3.30;;;31.30;99.90;;;;;;4999150;28;20431;-52
2022/06/05 12:01:56;;;;;;;4.20;3.90;;;31.30;99.90;;;;;;5002513;28;20477;-52
2022/06/05 12:04:31;;;;;;;3.87;3.57;;;31.30;99.90;;;;;;5003859;28;20478;-52
2022/06/05 12:06:59;;;;;;;3.40;3.20;;;31.50;99.90;;;;;;4991244;28;20418;-50
2022/06/05 12:09:32;;;;;;;3.80;3.50;;;31.70;99.90;;;;;;4998592;28;20412;-52
2022/06/05 12:12:03;;;;;;;3.70;3.30;;;31.80;99.90;;;;;;4985574;28;20526;-52
2022/06/05 12:14:33;;;;;;;3.40;3.20;;;31.60;99.90;;;;;;4994580;28;20510;-52
2022/06/05 12:17:01;;;;;;;3.43;3.23;;;31.20;99.90;;;;;;4985118;28;20431;-51
2022/06/05 12:19:55;;;;;;;3.50;3.20;;;31.10;99.90;;;;;;5004794;28;20839;-52
2022/06/05 12:22:27;;;;;;;4.63;3.30;;;31.00;99.90;;;;;;4996855;28;20478;-52
2022/06/05 12:25:10;;;;;;;3.13;2.90;;;30.50;99.90;;;;;;5000728;28;20869;-52
2022/06/05 12:27:52;;;;;;;3.17;2.90;;;30.30;99.90;;;;;;5002600;28;20403;-52
2022/06/05 12:30:23;;;;;;;3.57;3.37;;;30.00;99.90;;;;;;4987712;28;20434;-51
2022/06/05 12:32:59;;;;;;;3.67;3.20;;;29.60;99.90;;;;;;4996345;28;20514;-52
2022/06/05 12:35:35;;;;;;;3.30;3.10;;;29.60;99.90;;;;;;4993694;28;20445;-51
2022/06/05 12:38:30;;;;;;;3.43;3.13;;;29.80;99.90;;;;;;4997065;28;20431;-52
2022/06/05 12:41:13;;;;;;;2.97;2.77;;;30.30;99.90;;;;;;4998365;28;20814;-51
2022/06/05 12:43:44;;;;;;;3.40;3.10;;;30.50;99.90;;;;;;4991547;28;21233;-51
2022/06/05 12:46:33;;;;;;;3.07;2.77;;;30.80;99.90;;;;;;4996961;28;20483;-51
2022/06/05 12:49:23;;;;;;;3.03;2.83;;;31.00;99.90;;;;;;5003117;28;20427;-51
2022/06/05 12:52:12;;;;;;;3.40;3.10;;;30.90;99.90;;;;;;5002209;28;20462;-50
2022/06/05 12:55:01;;;;;;;3.30;3.00;;;30.60;99.90;;;;;;4968741;28;20481;-50
2022/06/05 12:57:36;;;;;;;3.07;2.80;;;30.30;99.90;;;;;;4999803;28;20463;-52
2022/06/05 13:00:18;;;;;;;3.03;2.83;;;30.40;99.90;;;;;;5002957;28;20554;-52
2022/06/05 13:03:03;;;;;;;3.27;3.03;;;30.30;99.90;;;;;;5003234;28;20749;-53
2022/06/05 13:05:30;;;;;;;3.83;2.60;;;30.40;99.90;;;;;;4993247;28;20434;-52
2022/06/05 13:08:08;;;;;;;2.50;2.27;;;30.30;99.90;;;;;;4996860;28;20428;-51
2022/06/05 13:10:55;;;;;;;3.23;2.67;;;30.30;99.90;;;;;;4999200;28;20772;-52
2022/06/05 13:13:42;;;;;;;2.60;2.40;;;30.60;99.90;;;;;;5001139;28;20440;-51
2022/06/05 13:16:35;;;;;;;2.77;2.57;;;30.60;99.90;;;;;;5003705;28;20517;-52
2022/06/05 13:19:18;;;;;;;2.80;2.60;;;30.70;99.90;;;;;;4995253;28;20442;-52
2022/06/05 13:22:22;;;;;;;3.00;2.20;;;30.60;99.90;;;;;;5003195;28;20900;-51
2022/06/05 13:25:13;;;;;;;2.90;2.70;;;30.50;99.90;;;;;;5001945;28;20766;-51
2022/06/05 13:28:06;;;;;;;3.93;2.40;;;30.40;99.90;;;;;;5002562;28;20419;-51
2022/06/05 13:30:50;;;;;;;2.97;2.77;;;30.20;99.90;;;;;;4994062;28;20423;-52